sensor_id;sensor_type;location;lat;lon;timestamp;P1;durP1;ratioP1;P2;durP2;ratioP2
64061;SDS011;50308;47.438;-1.528;2023-09-30T00:01:26;8.23;;;3.40;;
64061;SDS011;50308;47.438;-1.528;2023-09-30T00:03:52;8.43;;;3.42;;
64061;SDS011;50308;47.438;-1.528;2023-09-30T00:06:18;9.82;;;3.22;;
64061;SDS011;50308;47.438;-1.528;2023-09-30T00:08:44;8.02;;;3.75;;
64061;SDS011;50308;47.438;-1.528;2023-09-30T00:11:10;7.13;;;2.85;;
64061;SDS011;50308;47.438;-1.528;2023-09-30T00:13:36;6.68;;;3.03;;
64061;SDS011;50308;47.438;-1.528;2023-09-30T00:16:02;8.95;;;3.72;;
64061;SDS011;50308;47.438;-1.528;2023-09-30T00:18:27;5.50;;;3.00;;
64061;SDS011;50308;47.438;-1.528;2023-09-30T00:20:53;9.02;;;3.92;;
64061;SDS011;50308;47.438;-1.528;2023-09-30T00:23:19;7.00;;;2.95;;
64061;SDS011;50308;47.438;-1.528;2023-09-30T00:25:46;5.43;;;2.45;;
64061;SDS011;50308;47.438;-1.528;2023-09-30T00:28:13;8.48;;;3.05;;
64061;SDS011;50308;47.438;-1.528;2023-09-30T00:30:39;7.47;;;3.47;;
64061;SDS011;50308;47.438;-1.528;2023-09-30T00:33:05;9.27;;;3.40;;
64061;SDS011;50308;47.438;-1.528;2023-09-30T00:35:34;5.78;;;3.00;;
64061;SDS011;50308;47.438;-1.528;2023-09-30T00:38:00;8.43;;;4.28;;
64061;SDS011;50308;47.438;-1.528;2023-09-30T00:40:25;7.47;;;3.35;;
64061;SDS011;50308;47.438;-1.528;2023-09-30T00:42:51;8.18;;;3.47;;
64061;SDS011;50308;47.438;-1.528;2023-09-30T00:45:17;8.88;;;3.38;;
64061;SDS011;50308;47.438;-1.528;2023-09-30T00:47:42;7.60;;;2.83;;
64061;SDS011;50308;47.438;-1.528;2023-09-30T00:50:08;8.32;;;3.08;;
64061;SDS011;50308;47.438;-1.528;2023-09-30T00:52:37;7.25;;;3.20;;
64061;SDS011;50308;47.438;-1.528;2023-09-30T00:55:04;6.20;;;3.05;;
64061;SDS011;50308;47.438;-1.528;2023-09-30T00:57:30;8.63;;;3.35;;
64061;SDS011;50308;47.438;-1.528;2023-09-30T00:59:56;8.30;;;3.70;;
64061;SDS011;50308;47.438;-1.528;2023-09-30T01:02:23;8.88;;;3.85;;
64061;SDS011;50308;47.438;-1.528;2023-09-30T01:04:49;8.70;;;3.30;;
64061;SDS011;50308;47.438;-1.528;2023-09-30T01:07:15;9.23;;;3.78;;
64061;SDS011;50308;47.438;-1.528;2023-09-30T01:09:41;7.30;;;3.08;;
64061;SDS011;50308;47.438;-1.528;2023-09-30T01:12:07;6.93;;;3.42;;
64061;SDS011;50308;47.438;-1.528;2023-09-30T01:14:33;9.00;;;3.30;;
64061;SDS011;50308;47.438;-1.528;2023-09-30T01:17:00;7.45;;;3.70;;
64061;SDS011;50308;47.438;-1.528;2023-09-30T01:19:26;10.90;;;3.65;;
64061;SDS011;50308;47.438;-1.528;2023-09-30T01:21:56;8.73;;;3.47;;
64061;SDS011;50308;47.438;-1.528;2023-09-30T01:24:24;9.25;;;3.28;;
64061;SDS011;50308;47.438;-1.528;2023-09-30T01:26:50;7.72;;;3.42;;
64061;SDS011;50308;47.438;-1.528;2023-09-30T01:29:16;8.43;;;3.83;;
64061;SDS011;50308;47.438;-1.528;2023-09-30T01:31:42;9.18;;;3.17;;
64061;SDS011;50308;47.438;-1.528;2023-09-30T01:34:07;8.13;;;3.15;;
64061;SDS011;50308;47.438;-1.528;2023-09-30T01:36:33;8.43;;;3.30;;
64061;SDS011;50308;47.438;-1.528;2023-09-30T01:38:59;7.63;;;2.75;;
64061;SDS011;50308;47.438;-1.528;2023-09-30T01:41:26;7.25;;;3.13;;
64061;SDS011;50308;47.438;-1.528;2023-09-30T01:43:52;17.10;;;4.82;;
64061;SDS011;50308;47.438;-1.528;2023-09-30T01:46:18;9.65;;;3.50;;
64061;SDS011;50308;47.438;-1.528;2023-09-30T01:48:44;6.20;;;2.80;;
64061;SDS011;50308;47.438;-1.528;2023-09-30T01:51:09;9.55;;;3.42;;
64061;SDS011;50308;47.438;-1.528;2023-09-30T01:53:36;7.38;;;3.10;;
64061;SDS011;50308;47.438;-1.528;2023-09-30T01:56:01;9.32;;;3.03;;
64061;SDS011;50308;47.438;-1.528;2023-09-30T01:58:27;7.53;;;3.30;;
64061;SDS011;50308;47.438;-1.528;2023-09-30T02:00:53;8.05;;;2.97;;
64061;SDS011;50308;47.438;-1.528;2023-09-30T02:03:19;8.02;;;3.45;;
64061;SDS011;50308;47.438;-1.528;2023-09-30T02:05:45;8.98;;;3.40;;
64061;SDS011;50308;47.438;-1.528;2023-09-30T02:08:11;10.23;;;2.90;;
64061;SDS011;50308;47.438;-1.528;2023-09-30T02:10:38;6.90;;;3.78;;
64061;SDS011;50308;47.438;-1.528;2023-09-30T02:13:04;7.85;;;3.30;;
64061;SDS011;50308;47.438;-1.528;2023-09-30T02:15:31;7.72;;;3.28;;
64061;SDS011;50308;47.438;-1.528;2023-09-30T02:17:57;7.88;;;3.55;;
64061;SDS011;50308;47.438;-1.528;2023-09-30T02:20:23;6.88;;;3.42;;
64061;SDS011;50308;47.438;-1.528;2023-09-30T02:22:51;6.18;;;3.22;;
64061;SDS011;50308;47.438;-1.528;2023-09-30T02:25:17;8.00;;;3.25;;
64061;SDS011;50308;47.438;-1.528;2023-09-30T02:27:43;6.80;;;2.85;;
64061;SDS011;50308;47.438;-1.528;2023-09-30T02:30:10;10.02;;;3.33;;
64061;SDS011;50308;47.438;-1.528;2023-09-30T02:32:41;8.40;;;3.30;;
64061;SDS011;50308;47.438;-1.528;2023-09-30T02:35:07;9.38;;;3.08;;
64061;SDS011;50308;47.438;-1.528;2023-09-30T02:37:36;5.85;;;2.53;;
64061;SDS011;50308;47.438;-1.528;2023-09-30T02:40:05;8.35;;;3.22;;
64061;SDS011;50308;47.438;-1.528;2023-09-30T02:42:34;6.22;;;2.60;;
64061;SDS011;50308;47.438;-1.528;2023-09-30T02:45:01;5.72;;;2.60;;
64061;SDS011;50308;47.438;-1.528;2023-09-30T02:47:27;6.45;;;2.72;;
64061;SDS011;50308;47.438;-1.528;2023-09-30T02:49:54;7.72;;;3.05;;
64061;SDS011;50308;47.438;-1.528;2023-09-30T02:52:21;7.20;;;2.63;;
64061;SDS011;50308;47.438;-1.528;2023-09-30T02:54:47;6.60;;;2.95;;
64061;SDS011;50308;47.438;-1.528;2023-09-30T02:57:14;7.82;;;3.13;;
64061;SDS011;50308;47.438;-1.528;2023-09-30T02:59:40;6.85;;;2.90;;
64061;SDS011;50308;47.438;-1.528;2023-09-30T03:02:06;8.05;;;3.10;;
64061;SDS011;50308;47.438;-1.528;2023-09-30T03:04:32;6.75;;;2.90;;
64061;SDS011;50308;47.438;-1.528;2023-09-30T03:06:57;13.63;;;4.05;;
64061;SDS011;50308;47.438;-1.528;2023-09-30T03:09:23;8.27;;;3.70;;
64061;SDS011;50308;47.438;-1.528;2023-09-30T03:11:49;7.88;;;2.92;;
64061;SDS011;50308;47.438;-1.528;2023-09-30T03:14:15;9.02;;;2.70;;
64061;SDS011;50308;47.438;-1.528;2023-09-30T03:16:40;7.47;;;3.00;;
64061;SDS011;50308;47.438;-1.528;2023-09-30T03:19:07;4.90;;;2.70;;
64061;SDS011;50308;47.438;-1.528;2023-09-30T03:21:36;6.63;;;2.97;;
64061;SDS011;50308;47.438;-1.528;2023-09-30T03:24:05;9.30;;;3.08;;
64061;SDS011;50308;47.438;-1.528;2023-09-30T03:28:58;8.50;;;3.00;;
64061;SDS011;50308;47.438;-1.528;2023-09-30T03:31:24;6.55;;;2.72;;
64061;SDS011;50308;47.438;-1.528;2023-09-30T03:33:50;8.30;;;3.25;;
64061;SDS011;50308;47.438;-1.528;2023-09-30T03:36:19;6.05;;;2.85;;
64061;SDS011;50308;47.438;-1.528;2023-09-30T03:38:45;5.68;;;2.17;;
64061;SDS011;50308;47.438;-1.528;2023-09-30T03:41:11;6.82;;;3.00;;
64061;SDS011;50308;47.438;-1.528;2023-09-30T03:43:38;6.00;;;2.53;;
64061;SDS011;50308;47.438;-1.528;2023-09-30T03:46:06;4.90;;;2.50;;
64061;SDS011;50308;47.438;-1.528;2023-09-30T03:48:33;6.32;;;2.42;;
64061;SDS011;50308;47.438;-1.528;2023-09-30T03:51:10;6.57;;;2.88;;
64061;SDS011;50308;47.438;-1.528;2023-09-30T03:53:40;7.78;;;2.75;;
64061;SDS011;50308;47.438;-1.528;2023-09-30T03:56:06;7.07;;;3.45;;
64061;SDS011;50308;47.438;-1.528;2023-09-30T03:58:32;6.65;;;2.95;;
64061;SDS011;50308;47.438;-1.528;2023-09-30T04:00:59;6.15;;;2.72;;
64061;SDS011;50308;47.438;-1.528;2023-09-30T04:03:29;6.50;;;2.67;;
64061;SDS011;50308;47.438;-1.528;2023-09-30T04:05:54;6.53;;;2.55;;
64061;SDS011;50308;47.438;-1.528;2023-09-30T04:08:21;4.88;;;2.53;;
64061;SDS011;50308;47.438;-1.528;2023-09-30T04:10:47;8.23;;;3.20;;
64061;SDS011;50308;47.438;-1.528;2023-09-30T04:13:13;7.57;;;2.30;;
64061;SDS011;50308;47.438;-1.528;2023-09-30T04:15:38;5.47;;;2.70;;
64061;SDS011;50308;47.438;-1.528;2023-09-30T04:18:04;8.13;;;3.10;;
64061;SDS011;50308;47.438;-1.528;2023-09-30T04:20:30;6.38;;;3.35;;
64061;SDS011;50308;47.438;-1.528;2023-09-30T04:22:56;5.25;;;2.35;;
64061;SDS011;50308;47.438;-1.528;2023-09-30T04:25:22;5.88;;;2.58;;
64061;SDS011;50308;47.438;-1.528;2023-09-30T04:27:52;7.25;;;2.55;;
64061;SDS011;50308;47.438;-1.528;2023-09-30T04:30:17;4.82;;;2.35;;
64061;SDS011;50308;47.438;-1.528;2023-09-30T04:32:43;11.65;;;3.47;;
64061;SDS011;50308;47.438;-1.528;2023-09-30T04:35:10;6.03;;;2.83;;
64061;SDS011;50308;47.438;-1.528;2023-09-30T04:37:36;7.70;;;2.72;;
64061;SDS011;50308;47.438;-1.528;2023-09-30T04:40:03;5.10;;;2.55;;
64061;SDS011;50308;47.438;-1.528;2023-09-30T04:42:45;6.88;;;2.50;;
64061;SDS011;50308;47.438;-1.528;2023-09-30T04:45:14;7.25;;;2.63;;
64061;SDS011;50308;47.438;-1.528;2023-09-30T04:47:49;6.10;;;2.83;;
64061;SDS011;50308;47.438;-1.528;2023-09-30T04:50:15;6.07;;;2.80;;
64061;SDS011;50308;47.438;-1.528;2023-09-30T04:52:42;4.45;;;2.47;;
64061;SDS011;50308;47.438;-1.528;2023-09-30T04:55:08;6.07;;;2.78;;
64061;SDS011;50308;47.438;-1.528;2023-09-30T04:57:34;7.20;;;2.72;;
64061;SDS011;50308;47.438;-1.528;2023-09-30T05:00:00;5.05;;;2.25;;
64061;SDS011;50308;47.438;-1.528;2023-09-30T05:02:26;5.55;;;2.28;;
64061;SDS011;50308;47.438;-1.528;2023-09-30T05:04:52;10.88;;;3.28;;
64061;SDS011;50308;47.438;-1.528;2023-09-30T05:07:19;7.13;;;2.67;;
64061;SDS011;50308;47.438;-1.528;2023-09-30T05:09:46;6.35;;;2.53;;
64061;SDS011;50308;47.438;-1.528;2023-09-30T05:12:12;8.25;;;2.63;;
64061;SDS011;50308;47.438;-1.528;2023-09-30T05:14:38;6.80;;;3.08;;
64061;SDS011;50308;47.438;-1.528;2023-09-30T05:17:04;6.78;;;2.85;;
64061;SDS011;50308;47.438;-1.528;2023-09-30T05:19:30;5.82;;;2.70;;
64061;SDS011;50308;47.438;-1.528;2023-09-30T05:21:59;5.75;;;2.72;;
64061;SDS011;50308;47.438;-1.528;2023-09-30T05:24:27;5.78;;;2.53;;
64061;SDS011;50308;47.438;-1.528;2023-09-30T05:26:53;5.68;;;2.47;;
64061;SDS011;50308;47.438;-1.528;2023-09-30T05:29:19;7.15;;;2.97;;
64061;SDS011;50308;47.438;-1.528;2023-09-30T05:31:45;6.85;;;2.97;;
64061;SDS011;50308;47.438;-1.528;2023-09-30T05:34:12;7.22;;;2.58;;
64061;SDS011;50308;47.438;-1.528;2023-09-30T05:36:37;4.30;;;2.50;;
64061;SDS011;50308;47.438;-1.528;2023-09-30T05:39:03;6.40;;;2.83;;
64061;SDS011;50308;47.438;-1.528;2023-09-30T05:41:30;6.78;;;2.63;;
64061;SDS011;50308;47.438;-1.528;2023-09-30T05:43:56;4.95;;;2.38;;
64061;SDS011;50308;47.438;-1.528;2023-09-30T05:46:22;5.97;;;2.67;;
64061;SDS011;50308;47.438;-1.528;2023-09-30T05:48:48;6.47;;;2.78;;
64061;SDS011;50308;47.438;-1.528;2023-09-30T05:51:13;4.43;;;2.20;;
64061;SDS011;50308;47.438;-1.528;2023-09-30T05:53:40;5.93;;;2.35;;
64061;SDS011;50308;47.438;-1.528;2023-09-30T05:56:07;5.93;;;2.20;;
64061;SDS011;50308;47.438;-1.528;2023-09-30T05:58:33;7.93;;;3.40;;
64061;SDS011;50308;47.438;-1.528;2023-09-30T06:00:58;5.55;;;2.45;;
64061;SDS011;50308;47.438;-1.528;2023-09-30T06:03:27;5.35;;;2.45;;
64061;SDS011;50308;47.438;-1.528;2023-09-30T06:05:54;8.30;;;2.70;;
64061;SDS011;50308;47.438;-1.528;2023-09-30T06:08:25;6.70;;;2.70;;
64061;SDS011;50308;47.438;-1.528;2023-09-30T06:10:50;6.40;;;2.35;;
64061;SDS011;50308;47.438;-1.528;2023-09-30T06:13:16;5.97;;;2.88;;
64061;SDS011;50308;47.438;-1.528;2023-09-30T06:15:42;4.53;;;2.08;;
64061;SDS011;50308;47.438;-1.528;2023-09-30T06:18:09;4.38;;;1.92;;
64061;SDS011;50308;47.438;-1.528;2023-09-30T06:20:37;5.53;;;2.85;;
64061;SDS011;50308;47.438;-1.528;2023-09-30T06:23:03;5.13;;;2.38;;
64061;SDS011;50308;47.438;-1.528;2023-09-30T06:25:28;5.60;;;2.50;;
64061;SDS011;50308;47.438;-1.528;2023-09-30T06:27:55;7.45;;;2.53;;
64061;SDS011;50308;47.438;-1.528;2023-09-30T06:30:21;6.78;;;2.47;;
64061;SDS011;50308;47.438;-1.528;2023-09-30T06:32:54;6.40;;;2.88;;
64061;SDS011;50308;47.438;-1.528;2023-09-30T06:35:25;6.15;;;2.40;;
64061;SDS011;50308;47.438;-1.528;2023-09-30T06:37:55;5.22;;;2.30;;
64061;SDS011;50308;47.438;-1.528;2023-09-30T06:40:20;4.03;;;2.45;;
64061;SDS011;50308;47.438;-1.528;2023-09-30T06:42:47;5.68;;;2.50;;
64061;SDS011;50308;47.438;-1.528;2023-09-30T06:45:12;7.03;;;2.65;;
64061;SDS011;50308;47.438;-1.528;2023-09-30T06:47:39;7.38;;;2.97;;
64061;SDS011;50308;47.438;-1.528;2023-09-30T06:50:10;5.60;;;2.78;;
64061;SDS011;50308;47.438;-1.528;2023-09-30T06:52:41;5.07;;;2.20;;
64061;SDS011;50308;47.438;-1.528;2023-09-30T06:55:07;5.22;;;2.50;;
64061;SDS011;50308;47.438;-1.528;2023-09-30T06:57:35;6.28;;;3.13;;
64061;SDS011;50308;47.438;-1.528;2023-09-30T07:00:05;7.47;;;2.63;;
64061;SDS011;50308;47.438;-1.528;2023-09-30T07:02:35;5.20;;;2.17;;
64061;SDS011;50308;47.438;-1.528;2023-09-30T07:05:01;7.78;;;2.60;;
64061;SDS011;50308;47.438;-1.528;2023-09-30T07:07:30;5.00;;;2.58;;
64061;SDS011;50308;47.438;-1.528;2023-09-30T07:09:56;7.10;;;3.22;;
64061;SDS011;50308;47.438;-1.528;2023-09-30T07:12:22;5.70;;;2.88;;
64061;SDS011;50308;47.438;-1.528;2023-09-30T07:14:47;6.90;;;2.97;;
64061;SDS011;50308;47.438;-1.528;2023-09-30T07:17:13;7.75;;;3.10;;
64061;SDS011;50308;47.438;-1.528;2023-09-30T07:19:39;6.88;;;2.80;;
64061;SDS011;50308;47.438;-1.528;2023-09-30T07:22:04;5.72;;;2.70;;
64061;SDS011;50308;47.438;-1.528;2023-09-30T07:24:30;6.03;;;2.50;;
64061;SDS011;50308;47.438;-1.528;2023-09-30T07:26:56;7.45;;;2.45;;
64061;SDS011;50308;47.438;-1.528;2023-09-30T07:29:23;7.07;;;2.83;;
64061;SDS011;50308;47.438;-1.528;2023-09-30T07:31:48;6.20;;;2.40;;
64061;SDS011;50308;47.438;-1.528;2023-09-30T07:34:15;8.20;;;2.97;;
64061;SDS011;50308;47.438;-1.528;2023-09-30T07:36:41;7.53;;;3.03;;
64061;SDS011;50308;47.438;-1.528;2023-09-30T07:39:07;6.90;;;2.88;;
64061;SDS011;50308;47.438;-1.528;2023-09-30T07:41:36;5.25;;;3.15;;
64061;SDS011;50308;47.438;-1.528;2023-09-30T07:44:02;6.10;;;2.70;;
64061;SDS011;50308;47.438;-1.528;2023-09-30T07:46:28;9.23;;;3.38;;
64061;SDS011;50308;47.438;-1.528;2023-09-30T07:48:54;6.88;;;2.72;;
64061;SDS011;50308;47.438;-1.528;2023-09-30T07:51:20;7.38;;;3.10;;
64061;SDS011;50308;47.438;-1.528;2023-09-30T07:53:46;9.32;;;3.38;;
64061;SDS011;50308;47.438;-1.528;2023-09-30T07:56:11;5.85;;;2.90;;
64061;SDS011;50308;47.438;-1.528;2023-09-30T07:58:38;10.05;;;3.67;;
64061;SDS011;50308;47.438;-1.528;2023-09-30T08:01:03;9.77;;;3.28;;
64061;SDS011;50308;47.438;-1.528;2023-09-30T08:03:29;9.93;;;3.60;;
64061;SDS011;50308;47.438;-1.528;2023-09-30T08:05:56;7.18;;;3.65;;
64061;SDS011;50308;47.438;-1.528;2023-09-30T08:08:23;6.40;;;3.38;;
64061;SDS011;50308;47.438;-1.528;2023-09-30T08:10:49;10.65;;;3.90;;
64061;SDS011;50308;47.438;-1.528;2023-09-30T08:13:15;8.70;;;3.75;;
64061;SDS011;50308;47.438;-1.528;2023-09-30T08:15:42;9.77;;;3.95;;
64061;SDS011;50308;47.438;-1.528;2023-09-30T08:18:08;9.52;;;3.65;;
64061;SDS011;50308;47.438;-1.528;2023-09-30T08:20:33;9.63;;;3.75;;
64061;SDS011;50308;47.438;-1.528;2023-09-30T08:22:59;7.45;;;3.03;;
64061;SDS011;50308;47.438;-1.528;2023-09-30T08:25:25;8.95;;;3.70;;
64061;SDS011;50308;47.438;-1.528;2023-09-30T08:27:51;6.65;;;3.55;;
64061;SDS011;50308;47.438;-1.528;2023-09-30T08:30:17;5.88;;;3.53;;
64061;SDS011;50308;47.438;-1.528;2023-09-30T08:32:43;7.32;;;3.85;;
64061;SDS011;50308;47.438;-1.528;2023-09-30T08:35:09;7.72;;;3.67;;
64061;SDS011;50308;47.438;-1.528;2023-09-30T08:37:35;8.52;;;3.97;;
64061;SDS011;50308;47.438;-1.528;2023-09-30T08:40:00;9.90;;;4.05;;
64061;SDS011;50308;47.438;-1.528;2023-09-30T08:42:29;7.15;;;3.15;;
64061;SDS011;50308;47.438;-1.528;2023-09-30T08:44:58;9.38;;;3.72;;
64061;SDS011;50308;47.438;-1.528;2023-09-30T08:47:28;9.00;;;4.53;;
64061;SDS011;50308;47.438;-1.528;2023-09-30T08:49:54;9.20;;;3.42;;
64061;SDS011;50308;47.438;-1.528;2023-09-30T08:52:22;8.80;;;4.20;;
64061;SDS011;50308;47.438;-1.528;2023-09-30T08:54:49;12.10;;;4.22;;
64061;SDS011;50308;47.438;-1.528;2023-09-30T08:57:16;7.25;;;3.28;;
64061;SDS011;50308;47.438;-1.528;2023-09-30T08:59:44;7.57;;;3.55;;
64061;SDS011;50308;47.438;-1.528;2023-09-30T09:02:13;8.68;;;3.75;;
64061;SDS011;50308;47.438;-1.528;2023-09-30T09:04:39;9.95;;;4.43;;
64061;SDS011;50308;47.438;-1.528;2023-09-30T09:07:05;11.43;;;4.32;;
64061;SDS011;50308;47.438;-1.528;2023-09-30T09:09:31;10.32;;;3.65;;
64061;SDS011;50308;47.438;-1.528;2023-09-30T09:11:57;7.68;;;4.30;;
64061;SDS011;50308;47.438;-1.528;2023-09-30T09:14:39;9.80;;;4.07;;
64061;SDS011;50308;47.438;-1.528;2023-09-30T09:17:06;9.30;;;4.28;;
64061;SDS011;50308;47.438;-1.528;2023-09-30T09:19:33;8.60;;;4.15;;
64061;SDS011;50308;47.438;-1.528;2023-09-30T09:21:59;11.00;;;4.63;;
64061;SDS011;50308;47.438;-1.528;2023-09-30T09:24:26;10.02;;;4.38;;
64061;SDS011;50308;47.438;-1.528;2023-09-30T09:27:09;10.63;;;4.35;;
64061;SDS011;50308;47.438;-1.528;2023-09-30T09:29:36;10.85;;;4.32;;
64061;SDS011;50308;47.438;-1.528;2023-09-30T09:32:12;9.38;;;4.35;;
64061;SDS011;50308;47.438;-1.528;2023-09-30T09:34:39;13.20;;;5.00;;
64061;SDS011;50308;47.438;-1.528;2023-09-30T09:37:39;12.15;;;3.97;;
64061;SDS011;50308;47.438;-1.528;2023-09-30T09:39:58;11.23;;;5.00;;
64061;SDS011;50308;47.438;-1.528;2023-09-30T09:42:32;11.40;;;4.70;;
64061;SDS011;50308;47.438;-1.528;2023-09-30T09:45:00;10.35;;;4.63;;
64061;SDS011;50308;47.438;-1.528;2023-09-30T09:47:33;10.52;;;4.63;;
64061;SDS011;50308;47.438;-1.528;2023-09-30T09:50:02;13.40;;;5.10;;
64061;SDS011;50308;47.438;-1.528;2023-09-30T09:52:28;9.60;;;4.90;;
64061;SDS011;50308;47.438;-1.528;2023-09-30T09:54:56;13.68;;;5.40;;
64061;SDS011;50308;47.438;-1.528;2023-09-30T09:57:23;11.93;;;5.03;;
64061;SDS011;50308;47.438;-1.528;2023-09-30T09:59:51;15.10;;;5.72;;
64061;SDS011;50308;47.438;-1.528;2023-09-30T10:02:19;11.38;;;4.88;;
64061;SDS011;50308;47.438;-1.528;2023-09-30T10:04:45;11.50;;;5.07;;
64061;SDS011;50308;47.438;-1.528;2023-09-30T10:07:17;9.35;;;4.80;;
64061;SDS011;50308;47.438;-1.528;2023-09-30T10:09:51;9.27;;;4.40;;
64061;SDS011;50308;47.438;-1.528;2023-09-30T10:12:18;10.82;;;4.68;;
64061;SDS011;50308;47.438;-1.528;2023-09-30T10:14:46;8.70;;;4.43;;
64061;SDS011;50308;47.438;-1.528;2023-09-30T10:17:12;11.13;;;5.10;;
64061;SDS011;50308;47.438;-1.528;2023-09-30T10:20:23;11.75;;;5.38;;
64061;SDS011;50308;47.438;-1.528;2023-09-30T10:22:31;10.80;;;4.60;;
64061;SDS011;50308;47.438;-1.528;2023-09-30T10:24:58;15.40;;;5.30;;
64061;SDS011;50308;47.438;-1.528;2023-09-30T10:29:57;15.82;;;5.90;;
64061;SDS011;50308;47.438;-1.528;2023-09-30T10:35:19;9.40;;;4.38;;
64061;SDS011;50308;47.438;-1.528;2023-09-30T10:37:46;12.77;;;4.85;;
64061;SDS011;50308;47.438;-1.528;2023-09-30T10:40:28;14.38;;;5.43;;
64061;SDS011;50308;47.438;-1.528;2023-09-30T10:42:56;9.90;;;4.32;;
64061;SDS011;50308;47.438;-1.528;2023-09-30T10:50:51;11.35;;;5.07;;
64061;SDS011;50308;47.438;-1.528;2023-09-30T10:53:19;15.25;;;5.63;;
64061;SDS011;50308;47.438;-1.528;2023-09-30T10:55:45;14.38;;;5.07;;
64061;SDS011;50308;47.438;-1.528;2023-09-30T10:58:14;12.30;;;5.35;;
64061;SDS011;50308;47.438;-1.528;2023-09-30T11:00:51;13.32;;;5.20;;
64061;SDS011;50308;47.438;-1.528;2023-09-30T11:03:21;13.00;;;5.90;;
64061;SDS011;50308;47.438;-1.528;2023-09-30T11:05:48;12.30;;;5.30;;
64061;SDS011;50308;47.438;-1.528;2023-09-30T11:08:14;14.60;;;6.10;;
64061;SDS011;50308;47.438;-1.528;2023-09-30T11:10:48;16.95;;;6.68;;
64061;SDS011;50308;47.438;-1.528;2023-09-30T11:13:16;11.63;;;5.60;;
64061;SDS011;50308;47.438;-1.528;2023-09-30T11:15:43;13.05;;;6.05;;
64061;SDS011;50308;47.438;-1.528;2023-09-30T11:18:12;12.20;;;5.75;;
64061;SDS011;50308;47.438;-1.528;2023-09-30T11:20:39;13.68;;;5.93;;
64061;SDS011;50308;47.438;-1.528;2023-09-30T11:23:06;14.55;;;5.28;;
64061;SDS011;50308;47.438;-1.528;2023-09-30T11:25:35;11.85;;;6.25;;
64061;SDS011;50308;47.438;-1.528;2023-09-30T11:30:59;12.68;;;5.60;;
64061;SDS011;50308;47.438;-1.528;2023-09-30T11:33:27;13.00;;;5.88;;
64061;SDS011;50308;47.438;-1.528;2023-09-30T11:38:29;12.20;;;5.53;;
64061;SDS011;50308;47.438;-1.528;2023-09-30T11:43:34;16.50;;;6.03;;
64061;SDS011;50308;47.438;-1.528;2023-09-30T11:46:06;13.05;;;5.60;;
64061;SDS011;50308;47.438;-1.528;2023-09-30T11:48:36;13.93;;;5.75;;
64061;SDS011;50308;47.438;-1.528;2023-09-30T11:51:21;14.43;;;6.13;;
64061;SDS011;50308;47.438;-1.528;2023-09-30T11:53:49;13.30;;;6.70;;
64061;SDS011;50308;47.438;-1.528;2023-09-30T11:56:15;14.05;;;6.13;;
64061;SDS011;50308;47.438;-1.528;2023-09-30T11:58:41;13.50;;;5.47;;
64061;SDS011;50308;47.438;-1.528;2023-09-30T12:01:07;11.27;;;5.22;;
64061;SDS011;50308;47.438;-1.528;2023-09-30T12:03:35;12.00;;;5.88;;
64061;SDS011;50308;47.438;-1.528;2023-09-30T12:06:05;13.85;;;6.57;;
64061;SDS011;50308;47.438;-1.528;2023-09-30T12:08:33;13.48;;;7.20;;
64061;SDS011;50308;47.438;-1.528;2023-09-30T12:10:59;17.50;;;7.97;;
64061;SDS011;50308;47.438;-1.528;2023-09-30T12:13:25;16.60;;;8.55;;
64061;SDS011;50308;47.438;-1.528;2023-09-30T12:15:51;13.48;;;7.60;;
64061;SDS011;50308;47.438;-1.528;2023-09-30T12:18:20;14.05;;;7.60;;
64061;SDS011;50308;47.438;-1.528;2023-09-30T12:20:49;14.75;;;7.47;;
64061;SDS011;50308;47.438;-1.528;2023-09-30T12:23:17;15.23;;;7.78;;
64061;SDS011;50308;47.438;-1.528;2023-09-30T12:25:43;16.80;;;8.00;;
64061;SDS011;50308;47.438;-1.528;2023-09-30T12:28:09;14.73;;;6.50;;
64061;SDS011;50308;47.438;-1.528;2023-09-30T12:30:35;13.30;;;6.30;;
64061;SDS011;50308;47.438;-1.528;2023-09-30T12:33:01;13.70;;;6.65;;
64061;SDS011;50308;47.438;-1.528;2023-09-30T12:35:26;12.60;;;5.95;;
64061;SDS011;50308;47.438;-1.528;2023-09-30T12:37:52;14.55;;;6.15;;
64061;SDS011;50308;47.438;-1.528;2023-09-30T12:40:18;13.43;;;6.55;;
64061;SDS011;50308;47.438;-1.528;2023-09-30T12:42:44;13.07;;;6.00;;
64061;SDS011;50308;47.438;-1.528;2023-09-30T12:45:13;12.25;;;6.25;;
64061;SDS011;50308;47.438;-1.528;2023-09-30T12:47:38;14.88;;;6.60;;
64061;SDS011;50308;47.438;-1.528;2023-09-30T12:50:04;11.38;;;5.93;;
64061;SDS011;50308;47.438;-1.528;2023-09-30T12:52:34;14.13;;;6.05;;
64061;SDS011;50308;47.438;-1.528;2023-09-30T12:55:00;11.02;;;6.00;;
64061;SDS011;50308;47.438;-1.528;2023-09-30T12:57:25;14.38;;;6.10;;
64061;SDS011;50308;47.438;-1.528;2023-09-30T12:59:51;10.25;;;5.78;;
64061;SDS011;50308;47.438;-1.528;2023-09-30T13:02:18;15.07;;;6.57;;
64061;SDS011;50308;47.438;-1.528;2023-09-30T13:04:44;11.82;;;6.20;;
64061;SDS011;50308;47.438;-1.528;2023-09-30T13:07:10;12.82;;;6.10;;
64061;SDS011;50308;47.438;-1.528;2023-09-30T13:09:37;11.63;;;5.63;;
64061;SDS011;50308;47.438;-1.528;2023-09-30T13:12:04;11.93;;;5.45;;
64061;SDS011;50308;47.438;-1.528;2023-09-30T13:14:30;12.32;;;5.68;;
64061;SDS011;50308;47.438;-1.528;2023-09-30T13:16:55;11.50;;;5.85;;
64061;SDS011;50308;47.438;-1.528;2023-09-30T13:19:21;13.48;;;5.80;;
64061;SDS011;50308;47.438;-1.528;2023-09-30T13:21:48;12.43;;;5.50;;
64061;SDS011;50308;47.438;-1.528;2023-09-30T13:24:14;12.48;;;5.53;;
64061;SDS011;50308;47.438;-1.528;2023-09-30T13:26:40;10.98;;;5.22;;
64061;SDS011;50308;47.438;-1.528;2023-09-30T13:29:06;15.23;;;5.65;;
64061;SDS011;50308;47.438;-1.528;2023-09-30T13:31:34;12.75;;;6.32;;
64061;SDS011;50308;47.438;-1.528;2023-09-30T13:34:02;13.48;;;5.85;;
64061;SDS011;50308;47.438;-1.528;2023-09-30T13:36:29;9.98;;;5.13;;
64061;SDS011;50308;47.438;-1.528;2023-09-30T13:38:55;11.18;;;5.28;;
64061;SDS011;50308;47.438;-1.528;2023-09-30T13:41:21;13.43;;;5.72;;
64061;SDS011;50308;47.438;-1.528;2023-09-30T13:43:46;10.32;;;5.43;;
64061;SDS011;50308;47.438;-1.528;2023-09-30T13:46:12;11.30;;;5.47;;
64061;SDS011;50308;47.438;-1.528;2023-09-30T13:48:38;13.23;;;5.88;;
64061;SDS011;50308;47.438;-1.528;2023-09-30T13:51:07;16.23;;;5.90;;
64061;SDS011;50308;47.438;-1.528;2023-09-30T13:53:34;13.57;;;5.30;;
64061;SDS011;50308;47.438;-1.528;2023-09-30T13:56:00;13.48;;;5.90;;
64061;SDS011;50308;47.438;-1.528;2023-09-30T13:58:26;15.35;;;5.95;;
64061;SDS011;50308;47.438;-1.528;2023-09-30T14:00:52;10.52;;;5.28;;
64061;SDS011;50308;47.438;-1.528;2023-09-30T14:03:18;12.77;;;5.90;;
64061;SDS011;50308;47.438;-1.528;2023-09-30T14:05:44;15.07;;;5.90;;
64061;SDS011;50308;47.438;-1.528;2023-09-30T14:08:11;10.68;;;5.32;;
64061;SDS011;50308;47.438;-1.528;2023-09-30T14:10:37;9.98;;;5.40;;
64061;SDS011;50308;47.438;-1.528;2023-09-30T14:13:03;15.82;;;6.18;;
64061;SDS011;50308;47.438;-1.528;2023-09-30T14:15:29;14.68;;;5.88;;
64061;SDS011;50308;47.438;-1.528;2023-09-30T14:17:58;12.63;;;5.53;;
64061;SDS011;50308;47.438;-1.528;2023-09-30T14:20:24;16.23;;;8.05;;
64061;SDS011;50308;47.438;-1.528;2023-09-30T14:22:50;11.25;;;5.35;;
64061;SDS011;50308;47.438;-1.528;2023-09-30T14:25:17;11.05;;;5.63;;
64061;SDS011;50308;47.438;-1.528;2023-09-30T14:27:43;14.18;;;6.65;;
64061;SDS011;50308;47.438;-1.528;2023-09-30T14:30:08;14.10;;;5.57;;
64061;SDS011;50308;47.438;-1.528;2023-09-30T14:32:34;16.15;;;6.20;;
64061;SDS011;50308;47.438;-1.528;2023-09-30T14:35:00;11.88;;;5.50;;
64061;SDS011;50308;47.438;-1.528;2023-09-30T14:37:26;11.57;;;5.43;;
64061;SDS011;50308;47.438;-1.528;2023-09-30T14:39:54;14.00;;;5.85;;
64061;SDS011;50308;47.438;-1.528;2023-09-30T14:42:20;15.50;;;6.00;;
64061;SDS011;50308;47.438;-1.528;2023-09-30T14:44:45;12.95;;;5.03;;
64061;SDS011;50308;47.438;-1.528;2023-09-30T14:47:11;12.10;;;5.63;;
64061;SDS011;50308;47.438;-1.528;2023-09-30T14:49:37;9.82;;;5.45;;
64061;SDS011;50308;47.438;-1.528;2023-09-30T14:52:03;12.70;;;5.97;;